createdAt,value
2018-06-23T00:00:32.811Z,15.40
2018-06-23T00:02:39.471Z,15.50
2018-06-23T00:04:43.514Z,15.50
2018-06-23T00:06:47.927Z,15.50
2018-06-23T00:08:55.591Z,15.50
2018-06-23T00:10:59.854Z,15.50
2018-06-23T00:13:05.856Z,15.50
2018-06-23T00:15:10.321Z,15.40
2018-06-23T00:17:16.214Z,15.40
2018-06-23T00:19:20.155Z,15.40
2018-06-23T00:21:25.982Z,15.20
2018-06-23T00:23:33.622Z,15.10
2018-06-23T00:25:42.826Z,15.10
2018-06-23T00:27:46.763Z,15.00
2018-06-23T00:29:50.750Z,14.60
2018-06-23T00:31:54.704Z,14.50
2018-06-23T00:34:02.367Z,14.70
2018-06-23T00:36:07.150Z,14.60
2018-06-23T00:38:11.266Z,14.60
2018-06-23T00:40:16.280Z,14.50
2018-06-23T00:42:22.131Z,14.40
2018-06-23T00:44:26.022Z,14.50
2018-06-23T00:46:30.507Z,14.50
2018-06-23T00:48:34.667Z,14.50
2018-06-23T00:50:38.735Z,14.40
2018-06-23T00:52:43.317Z,14.30
2018-06-23T00:54:47.246Z,14.40
2018-06-23T00:56:51.887Z,14.50
2018-06-23T00:59:06.830Z,14.60
2018-06-23T01:01:11.777Z,14.70
2018-06-23T01:03:15.750Z,14.70
2018-06-23T01:05:20.953Z,14.70
2018-06-23T01:07:24.917Z,14.70
2018-06-23T01:09:28.846Z,14.60
2018-06-23T01:11:37.310Z,14.60
2018-06-23T01:13:41.326Z,14.60
2018-06-23T01:15:45.335Z,14.60
2018-06-23T01:17:49.398Z,14.50
2018-06-23T01:20:17.266Z,14.50
2018-06-23T01:22:24.089Z,14.50
2018-06-23T01:24:30.253Z,14.40
2018-06-23T01:26:35.520Z,14.40
2018-06-23T01:28:40.457Z,14.30
2018-06-23T01:30:44.737Z,14.30
2018-06-23T01:32:48.635Z,14.20
2018-06-23T01:34:53.247Z,14.20
2018-06-23T01:36:59.531Z,14.10
2018-06-23T01:39:04.088Z,14.10
2018-06-23T01:41:08.066Z,14.00
2018-06-23T01:43:12.337Z,13.90
2018-06-23T01:45:18.402Z,14.00
2018-06-23T01:47:22.664Z,14.00
2018-06-23T01:49:33.529Z,14.00
2018-06-23T01:53:47.538Z,14.20
2018-06-23T01:55:52.750Z,14.20
2018-06-23T01:57:56.662Z,14.20
2018-06-23T02:00:00.726Z,14.10
2018-06-23T02:02:07.211Z,14.00
2018-06-23T02:06:14.767Z,14.00
2018-06-23T02:08:18.907Z,14.20
2018-06-23T02:10:22.825Z,14.10
2018-06-23T02:14:37.259Z,14.10
2018-06-23T02:16:47.040Z,14.10
2018-06-23T02:18:56.169Z,14.10
2018-06-23T02:21:08.133Z,14.10
2018-06-23T02:23:17.190Z,14.00
2018-06-23T02:25:26.271Z,14.10
2018-06-23T02:27:38.282Z,14.10
2018-06-23T02:29:47.606Z,14.00
2018-06-23T02:31:56.695Z,14.00
2018-06-23T02:34:06.365Z,14.00
2018-06-23T02:36:10.373Z,13.90
2018-06-23T02:38:15.051Z,13.80
2018-06-23T02:40:18.957Z,13.80
2018-06-23T02:42:25.375Z,13.70
2018-06-23T02:44:29.311Z,13.70
2018-06-23T02:48:37.845Z,13.70
2018-06-23T02:50:41.743Z,13.70
2018-06-23T02:52:45.657Z,13.70
2018-06-23T02:54:49.998Z,13.60
2018-06-23T02:56:53.920Z,13.70
2018-06-23T02:58:57.873Z,13.60
2018-06-23T03:01:02.765Z,13.70
2018-06-23T03:03:06.762Z,13.70
2018-06-23T03:05:10.745Z,13.60
2018-06-23T03:07:14.916Z,13.60
2018-06-23T03:09:18.790Z,13.50
2018-06-23T03:11:22.742Z,13.60
2018-06-23T03:15:30.193Z,13.70
2018-06-23T03:17:35.149Z,13.70
2018-06-23T03:19:39.048Z,13.70
2018-06-23T03:21:43.294Z,13.60
2018-06-23T03:25:52.441Z,13.70
2018-06-23T03:27:58.689Z,13.70
2018-06-23T03:32:08.667Z,13.70
2018-06-23T03:34:13.957Z,13.60
2018-06-23T03:36:19.407Z,13.60
2018-06-23T03:38:24.029Z,13.50
2018-06-23T03:40:39.833Z,13.60
2018-06-23T03:42:43.967Z,13.70
2018-06-23T03:44:48.813Z,13.70
2018-06-23T03:46:53.348Z,13.70
2018-06-23T03:48:57.278Z,13.70
2018-06-23T03:51:01.246Z,13.70
2018-06-23T03:53:05.134Z,13.70
2018-06-23T03:55:09.056Z,13.60
2018-06-23T03:57:14.621Z,13.60
2018-06-23T03:59:19.553Z,13.50
2018-06-23T04:01:23.673Z,13.50
2018-06-23T04:03:28.298Z,13.50
2018-06-23T04:05:32.302Z,13.50
2018-06-23T04:07:37.331Z,13.40
2018-06-23T04:09:41.248Z,13.30
2018-06-23T04:11:46.251Z,13.20
2018-06-23T04:13:50.905Z,13.30
2018-06-23T04:15:55.716Z,13.30
2018-06-23T04:17:59.569Z,13.30
2018-06-23T04:20:03.482Z,13.40
2018-06-23T04:22:08.346Z,13.60
2018-06-23T04:24:12.206Z,13.80
2018-06-23T04:28:20.386Z,13.90
2018-06-23T04:30:24.520Z,14.00
2018-06-23T04:32:28.487Z,14.10
2018-06-23T04:34:33.817Z,14.10
2018-06-23T04:36:41.203Z,14.30
2018-06-23T04:38:45.967Z,14.50
2018-06-23T04:40:49.902Z,14.60
2018-06-23T04:42:55.426Z,14.80
2018-06-23T04:45:00.429Z,15.00
2018-06-23T04:47:05.400Z,15.10
2018-06-23T04:49:09.707Z,15.10
2018-06-23T04:51:13.698Z,15.20
2018-06-23T04:53:17.649Z,15.20
2018-06-23T04:55:23.859Z,15.20
2018-06-23T04:57:27.902Z,15.30
2018-06-23T05:01:38.319Z,15.40
2018-06-23T05:03:42.289Z,15.50
2018-06-23T05:07:50.215Z,15.30
2018-06-23T05:09:54.170Z,15.20
2018-06-23T05:12:00.210Z,15.20
2018-06-23T05:14:04.402Z,15.20
2018-06-23T05:16:08.373Z,15.20
2018-06-23T05:18:12.375Z,15.20
2018-06-23T05:20:16.334Z,15.30
2018-06-23T05:22:21.836Z,15.40
2018-06-23T05:24:25.866Z,15.40
2018-06-23T05:26:29.891Z,15.40
2018-06-23T05:28:34.058Z,15.50
2018-06-23T05:32:42.377Z,15.80
2018-06-23T05:34:47.511Z,16.10
2018-06-23T05:36:51.391Z,16.40
2018-06-23T05:38:56.126Z,16.50
2018-06-23T05:41:00.646Z,16.70
2018-06-23T05:43:05.535Z,16.50
2018-06-23T05:45:09.478Z,16.60
2018-06-23T05:47:14.306Z,16.60
2018-06-23T05:49:18.278Z,16.60
2018-06-23T05:51:22.336Z,16.60
2018-06-23T05:53:26.311Z,16.70
2018-06-23T05:55:30.266Z,16.80
2018-06-23T05:57:34.885Z,16.90
2018-06-23T06:01:59.542Z,17.10
2018-06-23T06:04:03.474Z,17.10
2018-06-23T06:06:07.489Z,17.10
2018-06-23T06:08:11.427Z,17.10
2018-06-23T06:10:15.434Z,17.00
2018-06-23T06:12:19.458Z,17.00
2018-06-23T06:14:23.406Z,16.90
2018-06-23T06:17:43.296Z,17.00
2018-06-23T06:19:47.796Z,17.20
2018-06-23T06:21:52.013Z,17.40
2018-06-23T06:23:55.882Z,17.50
2018-06-23T06:25:59.850Z,17.50
2018-06-23T06:28:04.125Z,17.40
2018-06-23T06:30:12.708Z,17.50
2018-06-23T06:32:16.624Z,17.60
2018-06-23T06:34:24.907Z,17.50
2018-06-23T06:36:31.504Z,17.70
2018-06-23T06:38:35.369Z,17.70
2018-06-23T06:40:40.247Z,17.70
2018-06-23T06:42:45.879Z,17.40
2018-06-23T06:44:49.831Z,17.30
2018-06-23T06:46:54.613Z,17.40
2018-06-23T06:49:02.314Z,17.70
2018-06-23T06:51:07.290Z,17.80
2018-06-23T06:53:14.294Z,17.90
2018-06-23T06:55:18.195Z,18.20
2018-06-23T06:57:22.091Z,18.30
2018-06-23T06:59:34.198Z,18.60
2018-06-23T07:01:39.725Z,18.70
2018-06-23T07:03:44.317Z,18.80
2018-06-23T07:05:48.634Z,18.80
2018-06-23T07:07:53.762Z,19.20
2018-06-23T07:10:03.045Z,20.00
2018-06-23T07:12:11.498Z,20.50
2018-06-23T07:14:15.438Z,20.60
2018-06-23T07:16:19.358Z,20.40
2018-06-23T07:18:23.721Z,20.80
2018-06-23T07:20:28.040Z,21.30
2018-06-23T07:22:34.144Z,21.10
2018-06-23T07:24:40.620Z,20.90
2018-06-23T07:28:50.110Z,20.90
2018-06-23T07:30:54.844Z,21.50
2018-06-23T07:32:59.966Z,21.80
2018-06-23T07:35:04.070Z,21.70
2018-06-23T07:37:09.906Z,22.00
2018-06-23T07:39:13.794Z,21.90
2018-06-23T07:41:18.515Z,21.80
2018-06-23T07:43:22.879Z,21.90
2018-06-23T07:45:28.448Z,22.60
2018-06-23T07:47:32.461Z,21.90
2018-06-23T07:49:37.505Z,22.30
2018-06-23T07:51:41.396Z,22.80
2018-06-23T07:53:45.355Z,23.00
2018-06-23T07:55:49.277Z,23.20
2018-06-23T07:57:53.709Z,24.00
2018-06-23T07:59:57.595Z,24.70
2018-06-23T08:02:02.892Z,25.30
2018-06-23T08:04:07.250Z,25.00
2018-06-23T08:06:12.450Z,24.60
2018-06-23T08:10:23.334Z,24.30
2018-06-23T08:12:28.116Z,23.90
2018-06-23T08:14:33.359Z,23.80
2018-06-23T08:16:38.390Z,23.70
2018-06-23T08:18:42.385Z,23.40
2018-06-23T08:20:47.058Z,23.80
2018-06-23T08:22:55.598Z,24.30
2018-06-23T08:25:00.360Z,24.40
2018-06-23T08:27:05.311Z,24.90
2018-06-23T08:29:14.121Z,24.80
2018-06-23T08:31:19.370Z,25.00
2018-06-23T08:33:23.307Z,25.30
2018-06-23T08:35:30.416Z,25.90
2018-06-23T08:37:36.170Z,25.90
2018-06-23T08:39:40.078Z,26.40
2018-06-23T08:41:44.364Z,27.20
2018-06-23T08:46:19.603Z,27.20
2018-06-23T08:48:29.316Z,27.50
2018-06-23T08:50:40.651Z,27.40
2018-06-23T08:52:46.275Z,27.40
2018-06-23T08:56:54.047Z,28.10
2018-06-23T08:58:58.389Z,28.20
2018-06-23T09:01:03.330Z,28.00
2018-06-23T09:03:10.194Z,28.70
2018-06-23T09:07:20.483Z,28.30
2018-06-23T09:09:25.604Z,27.80
2018-06-23T09:11:30.883Z,27.30
2018-06-23T09:13:36.641Z,27.00
2018-06-23T09:15:41.243Z,26.80
2018-06-23T09:17:47.633Z,26.90
2018-06-23T09:19:51.614Z,27.10
2018-06-23T09:21:56.522Z,27.40
2018-06-23T09:24:00.988Z,26.50
2018-06-23T09:26:05.503Z,25.90
2018-06-23T09:30:31.334Z,25.30
2018-06-23T09:32:37.589Z,25.20
2018-06-23T09:34:43.123Z,25.70
2018-06-23T09:36:55.395Z,26.10
2018-06-23T09:38:59.591Z,26.10
2018-06-23T09:41:03.519Z,26.00
2018-06-23T09:43:07.889Z,26.30
2018-06-23T09:45:13.475Z,25.80
2018-06-23T09:49:22.689Z,25.90
2018-06-23T09:51:28.491Z,25.40
2018-06-23T09:53:34.890Z,25.30
2018-06-23T09:55:42.306Z,25.20
2018-06-23T09:57:47.833Z,25.40
2018-06-23T09:59:57.319Z,24.90
2018-06-23T10:02:03.646Z,24.40
2018-06-23T10:04:10.002Z,24.50
2018-06-23T10:06:14.421Z,24.70
2018-06-23T10:08:19.830Z,25.20
2018-06-23T10:10:27.728Z,25.00
2018-06-23T10:12:34.552Z,24.60
2018-06-23T10:14:42.190Z,24.20
2018-06-23T10:16:46.112Z,24.20
2018-06-23T10:18:51.311Z,24.20
2018-06-23T10:20:56.923Z,24.20
2018-06-23T10:23:01.738Z,24.00
2018-06-23T10:25:06.874Z,23.60
2018-06-23T10:27:17.720Z,23.90
2018-06-23T10:29:22.184Z,24.30
2018-06-23T10:31:27.674Z,24.60
2018-06-23T10:33:33.986Z,24.40
2018-06-23T10:37:42.258Z,23.90
2018-06-23T10:39:47.987Z,23.80
2018-06-23T10:41:54.268Z,24.10
2018-06-23T10:43:59.680Z,24.10
2018-06-23T10:46:04.741Z,24.30
2018-06-23T10:48:09.366Z,23.90
2018-06-23T10:50:14.569Z,23.80
2018-06-23T10:52:21.309Z,24.00
2018-06-23T10:54:27.420Z,23.90
2018-06-23T10:56:35.347Z,24.00
2018-06-23T10:58:47.342Z,24.10
2018-06-23T11:00:51.655Z,24.20
2018-06-23T11:03:01.383Z,24.30
2018-06-23T11:05:10.331Z,24.40
2018-06-23T11:07:23.369Z,23.90
2018-06-23T11:09:28.993Z,23.80
2018-06-23T11:11:34.161Z,23.80
2018-06-23T11:13:38.408Z,24.20
2018-06-23T11:15:43.214Z,23.70
2018-06-23T11:19:52.656Z,23.20
2018-06-23T11:21:57.638Z,23.40
2018-06-23T11:24:01.879Z,23.70
2018-06-23T11:26:05.889Z,23.90
2018-06-23T11:28:10.035Z,23.50
2018-06-23T11:30:15.833Z,23.50
2018-06-23T11:32:19.867Z,23.40
2018-06-23T11:36:28.297Z,23.50
2018-06-23T11:38:32.266Z,23.70
2018-06-23T11:40:37.609Z,23.90
2018-06-23T11:42:45.381Z,23.90
2018-06-23T11:44:49.271Z,24.40
2018-06-23T11:46:53.915Z,24.70
2018-06-23T11:48:59.218Z,24.70
2018-06-23T11:51:03.195Z,25.10
2018-06-23T11:53:07.219Z,25.50
2018-06-23T11:55:16.273Z,25.80
2018-06-23T11:57:21.404Z,25.80
2018-06-23T11:59:27.226Z,25.60
2018-06-23T12:01:31.222Z,25.50
2018-06-23T12:03:38.365Z,25.40
2018-06-23T12:05:43.767Z,25.50
2018-06-23T12:07:54.614Z,25.80
2018-06-23T12:10:00.370Z,25.90
2018-06-23T12:15:18.249Z,26.00
2018-06-23T12:17:22.977Z,26.20
2018-06-23T12:19:27.689Z,26.00
2018-06-23T12:21:42.531Z,26.10
2018-06-23T12:23:52.098Z,25.90
2018-06-23T12:26:00.253Z,26.00
2018-06-23T12:28:08.379Z,25.90
2018-06-23T12:30:18.955Z,26.10
2018-06-23T12:32:32.794Z,26.10
2018-06-23T12:34:41.616Z,26.40
2018-06-23T12:36:59.270Z,26.30
2018-06-23T12:39:08.328Z,25.80
2018-06-23T12:41:17.489Z,25.40
2018-06-23T12:43:23.129Z,25.50
2018-06-23T12:45:28.334Z,25.90
2018-06-23T12:47:34.798Z,25.70
2018-06-23T12:49:50.814Z,25.90
2018-06-23T12:51:58.922Z,26.10
2018-06-23T12:54:09.366Z,26.10
2018-06-23T12:56:13.329Z,26.00
2018-06-23T12:58:19.453Z,25.50
2018-06-23T13:00:25.216Z,25.20
2018-06-23T13:02:29.155Z,25.10
2018-06-23T13:04:33.792Z,24.80
2018-06-23T13:06:39.629Z,24.60
2018-06-23T13:08:44.355Z,24.30
2018-06-23T13:10:48.894Z,24.40
2018-06-23T13:12:54.443Z,25.00
2018-06-23T13:14:58.480Z,25.30
2018-06-23T13:17:03.809Z,25.80
2018-06-23T13:19:09.917Z,25.80
2018-06-23T13:21:13.839Z,25.90
2018-06-23T13:23:18.407Z,25.90
2018-06-23T13:25:27.365Z,25.50
2018-06-23T13:27:33.095Z,25.70
2018-06-23T13:29:37.277Z,25.90
2018-06-23T13:31:45.899Z,26.00
2018-06-23T13:33:49.790Z,26.00
2018-06-23T13:35:54.728Z,26.00
2018-06-23T13:38:02.437Z,26.20
2018-06-23T13:40:07.233Z,26.30
2018-06-23T13:42:12.396Z,25.70
2018-06-23T13:44:19.701Z,25.80
2018-06-23T13:46:25.164Z,25.60
2018-06-23T13:48:29.358Z,25.50
2018-06-23T13:50:36.294Z,25.40
2018-06-23T13:52:41.105Z,25.60
2018-06-23T13:54:51.673Z,25.50
2018-06-23T13:56:56.522Z,25.40
2018-06-23T13:59:00.758Z,25.30
2018-06-23T14:01:05.273Z,25.20
2018-06-23T14:03:10.392Z,25.00
2018-06-23T14:05:14.338Z,25.00
2018-06-23T14:07:18.266Z,24.70
2018-06-23T14:09:37.382Z,24.50
2018-06-23T14:11:42.006Z,24.00
2018-06-23T14:13:45.881Z,23.60
2018-06-23T14:15:50.167Z,23.10
2018-06-23T14:17:55.290Z,22.90
2018-06-23T14:20:17.904Z,22.80
2018-06-23T14:22:39.157Z,22.60
2018-06-23T14:24:58.519Z,22.40
2018-06-23T14:27:10.190Z,22.20
2018-06-23T14:29:17.423Z,22.30
2018-06-23T14:31:21.856Z,22.70
2018-06-23T14:33:26.909Z,23.40
2018-06-23T14:35:32.814Z,24.00
2018-06-23T14:37:38.730Z,24.40
2018-06-23T14:39:43.226Z,24.20
2018-06-23T14:41:48.022Z,24.30
2018-06-23T14:43:51.934Z,25.00
2018-06-23T14:45:55.863Z,26.10
2018-06-23T14:48:00.229Z,26.60
2018-06-23T14:50:04.217Z,26.80
2018-06-23T14:52:08.093Z,26.50
2018-06-23T14:54:14.666Z,26.60
2018-06-23T14:56:18.562Z,26.40
2018-06-23T14:58:23.137Z,26.20
2018-06-23T15:00:29.034Z,26.30
2018-06-23T15:02:33.221Z,26.70
2018-06-23T15:04:39.345Z,27.30
2018-06-23T15:06:48.233Z,27.50
2018-06-23T15:09:03.367Z,27.00
2018-06-23T15:13:21.737Z,26.60
2018-06-23T15:15:27.260Z,26.00
2018-06-23T15:17:31.277Z,26.10
2018-06-23T15:19:39.422Z,26.20
2018-06-23T15:21:43.315Z,26.10
2018-06-23T15:23:50.434Z,26.00
2018-06-23T15:25:54.865Z,25.40
2018-06-23T15:27:58.984Z,25.10
2018-06-23T15:30:04.343Z,25.00
2018-06-23T15:32:12.304Z,24.80
2018-06-23T15:34:16.551Z,24.60
2018-06-23T15:36:28.089Z,24.60
2018-06-23T15:38:32.506Z,24.70
2018-06-23T15:40:36.416Z,24.80
2018-06-23T15:42:40.413Z,24.80
2018-06-23T15:44:45.698Z,24.50
2018-06-23T15:46:55.049Z,24.60
2018-06-23T15:48:59.639Z,24.70
2018-06-23T15:51:04.407Z,24.60
2018-06-23T15:53:09.510Z,25.20
2018-06-23T15:55:14.041Z,26.10
2018-06-23T15:57:23.167Z,26.50
2018-06-23T15:59:30.325Z,26.90
2018-06-23T16:01:35.290Z,27.30
2018-06-23T16:03:41.375Z,27.70
2018-06-23T16:05:45.255Z,27.50
2018-06-23T16:07:50.459Z,27.30
2018-06-23T16:09:59.678Z,27.50
2018-06-23T16:12:06.213Z,27.80
2018-06-23T16:14:11.238Z,27.30
2018-06-23T16:16:23.929Z,27.20
2018-06-23T16:18:28.807Z,26.90
2018-06-23T16:20:35.460Z,27.00
2018-06-23T16:22:50.250Z,27.10
2018-06-23T16:24:58.587Z,27.60
2018-06-23T16:27:03.082Z,27.40
2018-06-23T16:29:11.549Z,26.70
2018-06-23T16:31:19.062Z,25.90
2018-06-23T16:33:27.921Z,25.40
2018-06-23T16:35:36.140Z,25.10
2018-06-23T16:37:44.006Z,25.30
2018-06-23T16:40:03.428Z,25.50
2018-06-23T16:42:10.324Z,26.20
2018-06-23T16:44:15.145Z,26.20
2018-06-23T16:46:21.794Z,26.50
2018-06-23T16:48:28.396Z,26.20
2018-06-23T16:50:33.985Z,26.60
2018-06-23T16:52:38.332Z,27.50
2018-06-23T16:54:42.923Z,27.80
2018-06-23T16:56:50.643Z,27.80
2018-06-23T16:58:56.577Z,27.30
2018-06-23T17:01:01.475Z,27.10
2018-06-23T17:03:05.406Z,26.80
2018-06-23T17:05:09.882Z,26.00
2018-06-23T17:07:16.698Z,26.00
2018-06-23T17:09:27.251Z,26.00
2018-06-23T17:11:33.850Z,26.30
2018-06-23T17:13:40.272Z,26.30
2018-06-23T17:15:46.366Z,26.10
2018-06-23T17:17:52.185Z,26.00
2018-06-23T17:19:58.621Z,25.60
2018-06-23T17:22:02.507Z,25.50
2018-06-23T17:24:07.390Z,25.20
2018-06-23T17:26:12.273Z,25.40
2018-06-23T17:28:17.564Z,25.60
2018-06-23T17:30:21.479Z,26.00
2018-06-23T17:32:26.830Z,26.40
2018-06-23T17:34:32.943Z,26.90
2018-06-23T17:36:37.841Z,27.20
2018-06-23T17:38:41.989Z,27.20
2018-06-23T17:40:48.631Z,26.80
2018-06-23T17:42:52.702Z,26.50
2018-06-23T17:44:58.735Z,26.60
2018-06-23T17:47:07.319Z,27.00
2018-06-23T17:49:11.339Z,27.10
2018-06-23T17:51:17.555Z,27.40
2018-06-23T17:53:22.580Z,27.50
2018-06-23T17:55:27.152Z,27.80
2018-06-23T17:57:33.647Z,27.70
2018-06-23T17:59:37.701Z,27.50
2018-06-23T18:01:42.111Z,27.10
2018-06-23T18:03:46.275Z,26.60
2018-06-23T18:05:50.484Z,25.90
2018-06-23T18:07:55.304Z,25.40
2018-06-23T18:10:00.836Z,25.00
2018-06-23T18:12:06.223Z,24.40
2018-06-23T18:14:15.612Z,23.60
2018-06-23T18:16:22.185Z,23.10
2018-06-23T18:18:30.681Z,22.70
2018-06-23T18:20:39.013Z,22.30
2018-06-23T18:25:29.349Z,21.70
2018-06-23T18:27:36.521Z,21.40
2018-06-23T18:29:49.678Z,21.00
2018-06-23T18:31:55.697Z,20.80
2018-06-23T18:34:01.104Z,20.80
2018-06-23T18:36:09.039Z,20.80
2018-06-23T18:38:13.062Z,20.80
2018-06-23T18:40:19.952Z,20.90
2018-06-23T18:42:25.158Z,20.80
2018-06-23T18:44:29.338Z,20.50
2018-06-23T18:46:38.750Z,20.40
2018-06-23T18:48:47.076Z,20.30
2018-06-23T18:50:50.967Z,20.30
2018-06-23T18:52:54.899Z,20.20
2018-06-23T18:54:59.939Z,20.20
2018-06-23T18:57:06.674Z,20.30
2018-06-23T18:59:10.744Z,20.30
2018-06-23T19:01:16.234Z,20.10
2018-06-23T19:03:20.978Z,19.90
2018-06-23T19:05:25.527Z,19.80
2018-06-23T19:07:31.833Z,19.60
2018-06-23T19:09:43.422Z,19.50
2018-06-23T19:11:50.347Z,19.50
2018-06-23T19:13:55.483Z,19.40
2018-06-23T19:16:01.325Z,19.20
2018-06-23T19:18:06.337Z,19.10
2018-06-23T19:22:15.800Z,18.90
2018-06-23T19:24:22.179Z,18.80
2018-06-23T19:26:30.121Z,18.80
2018-06-23T19:28:35.595Z,18.70
2018-06-23T19:30:45.850Z,18.70
2018-06-23T19:32:56.215Z,18.50
2018-06-23T19:35:03.279Z,18.50
2018-06-23T19:37:08.556Z,18.40
2018-06-23T19:39:14.046Z,18.40
2018-06-23T19:41:30.059Z,18.40
2018-06-23T19:43:36.102Z,18.40
2018-06-23T19:45:47.625Z,18.40
2018-06-23T19:48:04.605Z,18.30
2018-06-23T19:50:09.868Z,18.30
2018-06-23T19:52:14.851Z,18.40
2018-06-23T19:54:19.681Z,18.40
2018-06-23T19:56:29.942Z,18.10
2018-06-23T19:58:36.498Z,18.10
2018-06-23T20:00:44.312Z,18.00
2018-06-23T20:02:53.270Z,18.00
2018-06-23T20:12:13.671Z,17.70
2018-06-23T20:14:20.214Z,17.70
2018-06-23T20:16:27.489Z,17.70
2018-06-23T20:18:43.786Z,17.60
2018-06-23T20:20:50.447Z,17.50
2018-06-23T20:23:00.952Z,17.60
2018-06-23T20:25:06.601Z,17.70
2018-06-23T20:27:14.054Z,17.60
2018-06-23T20:29:27.448Z,17.70
2018-06-23T20:31:33.740Z,17.50
2018-06-23T20:33:39.574Z,17.40
2018-06-23T20:35:46.114Z,17.40
2018-06-23T20:37:50.075Z,17.40
2018-06-23T20:39:54.792Z,17.40
2018-06-23T20:42:01.475Z,17.30
2018-06-23T20:44:08.281Z,17.20
2018-06-23T20:46:17.787Z,17.30
2018-06-23T20:48:26.308Z,17.30
2018-06-23T20:50:53.111Z,17.30
2018-06-23T20:52:58.866Z,17.20
2018-06-23T20:55:07.679Z,17.10
2018-06-23T20:57:18.638Z,17.10
2018-06-23T20:59:26.404Z,17.20
2018-06-23T21:01:37.127Z,17.20
2018-06-23T21:03:43.986Z,17.20
2018-06-23T21:05:50.401Z,17.00
2018-06-23T21:07:54.787Z,17.00
2018-06-23T21:10:00.635Z,17.10
2018-06-23T21:12:05.196Z,17.10
2018-06-23T21:14:17.318Z,17.00
2018-06-23T21:16:23.352Z,17.10
2018-06-23T21:18:27.265Z,17.00
2018-06-23T21:22:45.837Z,17.20
2018-06-23T21:24:49.827Z,17.10
2018-06-23T21:26:55.134Z,17.10
2018-06-23T21:29:02.354Z,17.20
2018-06-23T21:31:10.090Z,17.20
2018-06-23T21:33:16.499Z,17.30
2018-06-23T21:37:36.717Z,17.40
2018-06-23T21:39:43.662Z,17.40
2018-06-23T21:41:50.041Z,17.40
2018-06-23T21:43:55.225Z,17.40
2018-06-23T21:45:59.634Z,17.40
2018-06-23T21:48:03.978Z,17.40
2018-06-23T21:50:09.658Z,17.40
2018-06-23T21:52:16.048Z,17.40
2018-06-23T21:54:20.569Z,17.50
2018-06-23T21:58:33.573Z,17.40
2018-06-23T22:00:43.443Z,17.40
2018-06-23T22:02:49.822Z,17.40
2018-06-23T22:04:57.666Z,17.40
2018-06-23T22:07:08.710Z,17.40
2018-06-23T22:09:15.815Z,17.40
2018-06-23T22:11:23.294Z,17.50
2018-06-23T22:13:33.753Z,17.50
2018-06-23T22:15:43.656Z,17.50
2018-06-23T22:17:53.611Z,17.40
2018-06-23T22:19:59.466Z,17.40
2018-06-23T22:22:07.226Z,17.50
2018-06-23T22:24:14.314Z,17.60
2018-06-23T22:26:22.656Z,17.60
2018-06-23T22:28:27.770Z,17.70
2018-06-23T22:30:33.296Z,17.70
2018-06-23T22:32:39.787Z,17.70
2018-06-23T22:34:45.395Z,17.60
2018-06-23T22:36:51.432Z,17.60
2018-06-23T22:38:56.614Z,17.50
2018-06-23T22:43:09.389Z,17.70
2018-06-23T22:45:15.573Z,17.80
2018-06-23T22:47:23.253Z,17.90
2018-06-23T22:49:28.173Z,18.10
2018-06-23T22:51:33.866Z,18.00
2018-06-23T22:53:38.842Z,18.10
2018-06-23T22:55:43.780Z,18.20
2018-06-23T22:57:48.731Z,18.10
2018-06-23T22:59:56.710Z,18.20
2018-06-23T23:02:01.060Z,18.40
2018-06-23T23:04:04.987Z,18.50
2018-06-23T23:06:11.278Z,18.50
2018-06-23T23:08:16.276Z,18.60
2018-06-23T23:12:26.713Z,18.50
2018-06-23T23:14:35.545Z,18.50
2018-06-23T23:16:40.639Z,18.40
2018-06-23T23:18:45.185Z,18.40
2018-06-23T23:20:52.195Z,18.30
2018-06-23T23:23:01.407Z,18.20
2018-06-23T23:25:07.587Z,18.40
2018-06-23T23:27:12.985Z,18.30
2018-06-23T23:29:18.899Z,18.20
2018-06-23T23:31:25.681Z,18.00
2018-06-23T23:33:35.411Z,17.90
2018-06-23T23:35:50.306Z,18.10
2018-06-23T23:37:55.599Z,18.10
2018-06-23T23:40:04.284Z,18.10
2018-06-23T23:42:10.168Z,18.20
2018-06-23T23:44:16.266Z,18.20
2018-06-23T23:46:29.649Z,18.10
2018-06-23T23:48:34.622Z,18.10
2018-06-23T23:50:40.063Z,18.10
2018-06-23T23:52:49.027Z,18.20
2018-06-23T23:54:52.913Z,18.40
2018-06-23T23:56:56.990Z,18.40
2018-06-23T23:59:01.255Z,18.50
